sensor_id;sensor_type;location;lat;lon;timestamp;P1;durP1;ratioP1;P2;durP2;ratioP2
1054;SDS011;516;51.482;7.120;2022-08-05T00:01:39;6.60;;;6.00;;
1054;SDS011;516;51.482;7.120;2022-08-05T00:04:05;6.97;;;6.47;;
1054;SDS011;516;51.482;7.120;2022-08-05T00:06:30;6.17;;;5.70;;
1054;SDS011;516;51.482;7.120;2022-08-05T00:08:56;7.53;;;6.73;;
1054;SDS011;516;51.482;7.120;2022-08-05T00:11:22;10.60;;;6.60;;
1054;SDS011;516;51.482;7.120;2022-08-05T00:13:47;7.87;;;7.07;;
1054;SDS011;516;51.482;7.120;2022-08-05T00:16:13;6.70;;;5.57;;
1054;SDS011;516;51.482;7.120;2022-08-05T00:18:40;10.43;;;6.87;;
1054;SDS011;516;51.482;7.120;2022-08-05T00:21:08;6.40;;;5.40;;
1054;SDS011;516;51.482;7.120;2022-08-05T00:23:34;5.63;;;5.00;;
1054;SDS011;516;51.482;7.120;2022-08-05T00:26:01;6.37;;;4.63;;
1054;SDS011;516;51.482;7.120;2022-08-05T00:28:27;6.03;;;4.47;;
1054;SDS011;516;51.482;7.120;2022-08-05T00:30:52;5.87;;;5.40;;
1054;SDS011;516;51.482;7.120;2022-08-05T00:33:18;6.07;;;4.63;;
1054;SDS011;516;51.482;7.120;2022-08-05T00:35:43;6.00;;;5.07;;
1054;SDS011;516;51.482;7.120;2022-08-05T00:38:09;7.43;;;6.03;;
1054;SDS011;516;51.482;7.120;2022-08-05T00:40:44;8.47;;;6.13;;
1054;SDS011;516;51.482;7.120;2022-08-05T00:43:11;7.63;;;5.23;;
1054;SDS011;516;51.482;7.120;2022-08-05T00:45:36;6.63;;;5.30;;
1054;SDS011;516;51.482;7.120;2022-08-05T00:48:02;5.57;;;5.17;;
1054;SDS011;516;51.482;7.120;2022-08-05T00:50:28;8.33;;;5.20;;
1054;SDS011;516;51.482;7.120;2022-08-05T00:52:53;6.17;;;5.60;;
1054;SDS011;516;51.482;7.120;2022-08-05T00:55:19;5.60;;;5.10;;
1054;SDS011;516;51.482;7.120;2022-08-05T00:57:45;6.07;;;5.20;;
1054;SDS011;516;51.482;7.120;2022-08-05T01:00:10;5.87;;;5.37;;
1054;SDS011;516;51.482;7.120;2022-08-05T01:02:36;7.03;;;5.47;;
1054;SDS011;516;51.482;7.120;2022-08-05T01:05:02;6.60;;;5.50;;
1054;SDS011;516;51.482;7.120;2022-08-05T01:07:28;7.67;;;5.90;;
1054;SDS011;516;51.482;7.120;2022-08-05T01:09:53;5.97;;;5.13;;
1054;SDS011;516;51.482;7.120;2022-08-05T01:12:19;7.40;;;6.07;;
1054;SDS011;516;51.482;7.120;2022-08-05T01:14:51;5.60;;;5.00;;
1054;SDS011;516;51.482;7.120;2022-08-05T01:20:04;8.07;;;5.80;;
1054;SDS011;516;51.482;7.120;2022-08-05T01:22:57;6.17;;;5.57;;
1054;SDS011;516;51.482;7.120;2022-08-05T01:25:52;6.30;;;5.57;;
1054;SDS011;516;51.482;7.120;2022-08-05T01:28:44;8.30;;;6.20;;
1054;SDS011;516;51.482;7.120;2022-08-05T01:31:19;7.40;;;6.47;;
1054;SDS011;516;51.482;7.120;2022-08-05T01:33:57;8.10;;;6.70;;
1054;SDS011;516;51.482;7.120;2022-08-05T01:36:39;6.67;;;6.03;;
1054;SDS011;516;51.482;7.120;2022-08-05T01:39:10;7.00;;;6.33;;
1054;SDS011;516;51.482;7.120;2022-08-05T01:41:38;9.80;;;7.00;;
1054;SDS011;516;51.482;7.120;2022-08-05T01:44:06;11.00;;;6.30;;
1054;SDS011;516;51.482;7.120;2022-08-05T01:46:34;6.90;;;6.17;;
1054;SDS011;516;51.482;7.120;2022-08-05T01:49:00;7.67;;;6.80;;
1054;SDS011;516;51.482;7.120;2022-08-05T01:51:29;6.87;;;5.87;;
1054;SDS011;516;51.482;7.120;2022-08-05T01:53:57;9.33;;;6.53;;
1054;SDS011;516;51.482;7.120;2022-08-05T01:56:23;6.47;;;5.87;;
1054;SDS011;516;51.482;7.120;2022-08-05T01:58:54;7.33;;;6.73;;
1054;SDS011;516;51.482;7.120;2022-08-05T02:01:21;7.47;;;6.17;;
1054;SDS011;516;51.482;7.120;2022-08-05T02:03:49;6.53;;;5.50;;
1054;SDS011;516;51.482;7.120;2022-08-05T02:06:17;7.10;;;6.27;;
1054;SDS011;516;51.482;7.120;2022-08-05T02:08:43;7.67;;;5.63;;
1054;SDS011;516;51.482;7.120;2022-08-05T02:11:10;10.33;;;8.17;;
1054;SDS011;516;51.482;7.120;2022-08-05T02:18:43;11.40;;;10.40;;
1054;SDS011;516;51.482;7.120;2022-08-05T02:21:21;15.27;;;11.50;;
1054;SDS011;516;51.482;7.120;2022-08-05T02:23:52;11.70;;;7.50;;
1054;SDS011;516;51.482;7.120;2022-08-05T02:26:24;7.37;;;6.63;;
1054;SDS011;516;51.482;7.120;2022-08-05T02:28:57;6.43;;;5.83;;
1054;SDS011;516;51.482;7.120;2022-08-05T02:31:27;6.37;;;5.70;;
1054;SDS011;516;51.482;7.120;2022-08-05T02:34:03;8.33;;;6.10;;
1054;SDS011;516;51.482;7.120;2022-08-05T02:36:31;7.17;;;6.57;;
1054;SDS011;516;51.482;7.120;2022-08-05T02:39:02;10.23;;;6.50;;
1054;SDS011;516;51.482;7.120;2022-08-05T02:41:30;8.07;;;7.30;;
1054;SDS011;516;51.482;7.120;2022-08-05T02:43:57;9.20;;;6.63;;
1054;SDS011;516;51.482;7.120;2022-08-05T02:46:25;13.60;;;7.40;;
1054;SDS011;516;51.482;7.120;2022-08-05T02:48:53;8.57;;;7.67;;
1054;SDS011;516;51.482;7.120;2022-08-05T02:51:19;8.07;;;7.27;;
1054;SDS011;516;51.482;7.120;2022-08-05T02:53:46;15.33;;;8.00;;
1054;SDS011;516;51.482;7.120;2022-08-05T02:56:14;10.40;;;7.00;;
1054;SDS011;516;51.482;7.120;2022-08-05T02:58:40;9.50;;;8.37;;
1054;SDS011;516;51.482;7.120;2022-08-05T03:01:16;11.67;;;9.33;;
1054;SDS011;516;51.482;7.120;2022-08-05T03:03:43;13.90;;;8.77;;
1054;SDS011;516;51.482;7.120;2022-08-05T03:06:14;11.77;;;9.20;;
1054;SDS011;516;51.482;7.120;2022-08-05T03:08:41;11.33;;;8.20;;
1054;SDS011;516;51.482;7.120;2022-08-05T03:11:20;12.00;;;9.70;;
1054;SDS011;516;51.482;7.120;2022-08-05T03:13:49;13.97;;;10.10;;
1054;SDS011;516;51.482;7.120;2022-08-05T03:16:16;13.63;;;10.60;;
1054;SDS011;516;51.482;7.120;2022-08-05T03:18:42;12.13;;;9.50;;
1054;SDS011;516;51.482;7.120;2022-08-05T03:21:10;11.13;;;9.13;;
1054;SDS011;516;51.482;7.120;2022-08-05T03:23:37;10.87;;;9.10;;
1054;SDS011;516;51.482;7.120;2022-08-05T03:26:04;13.80;;;9.97;;
1054;SDS011;516;51.482;7.120;2022-08-05T03:28:31;11.30;;;9.40;;
1054;SDS011;516;51.482;7.120;2022-08-05T03:30:57;12.73;;;10.27;;
1054;SDS011;516;51.482;7.120;2022-08-05T03:33:24;12.57;;;10.40;;
1054;SDS011;516;51.482;7.120;2022-08-05T03:35:51;15.53;;;10.80;;
1054;SDS011;516;51.482;7.120;2022-08-05T03:38:19;11.07;;;9.97;;
1054;SDS011;516;51.482;7.120;2022-08-05T03:40:46;15.57;;;11.97;;
1054;SDS011;516;51.482;7.120;2022-08-05T03:43:12;13.53;;;11.27;;
1054;SDS011;516;51.482;7.120;2022-08-05T03:45:38;20.23;;;11.90;;
1054;SDS011;516;51.482;7.120;2022-08-05T03:48:04;15.60;;;11.60;;
1054;SDS011;516;51.482;7.120;2022-08-05T03:51:12;14.90;;;11.50;;
1054;SDS011;516;51.482;7.120;2022-08-05T03:53:29;16.10;;;12.93;;
1054;SDS011;516;51.482;7.120;2022-08-05T03:56:32;16.97;;;12.23;;
1054;SDS011;516;51.482;7.120;2022-08-05T03:59:08;15.57;;;12.57;;
1054;SDS011;516;51.482;7.120;2022-08-05T04:01:39;12.90;;;11.63;;
1054;SDS011;516;51.482;7.120;2022-08-05T04:04:08;14.43;;;10.80;;
1054;SDS011;516;51.482;7.120;2022-08-05T04:06:36;13.90;;;12.60;;
1054;SDS011;516;51.482;7.120;2022-08-05T04:09:03;12.70;;;11.00;;
1054;SDS011;516;51.482;7.120;2022-08-05T04:11:34;14.80;;;12.40;;
1054;SDS011;516;51.482;7.120;2022-08-05T04:14:01;22.33;;;11.90;;
1054;SDS011;516;51.482;7.120;2022-08-05T04:16:29;15.63;;;10.77;;
1054;SDS011;516;51.482;7.120;2022-08-05T04:18:56;11.80;;;10.60;;
1054;SDS011;516;51.482;7.120;2022-08-05T04:21:22;16.93;;;12.57;;
1054;SDS011;516;51.482;7.120;2022-08-05T04:23:48;13.90;;;11.87;;
1054;SDS011;516;51.482;7.120;2022-08-05T04:26:14;17.57;;;13.17;;
1054;SDS011;516;51.482;7.120;2022-08-05T04:28:40;17.37;;;12.87;;
1054;SDS011;516;51.482;7.120;2022-08-05T04:31:06;14.30;;;12.27;;
1054;SDS011;516;51.482;7.120;2022-08-05T04:33:32;14.60;;;13.13;;
1054;SDS011;516;51.482;7.120;2022-08-05T04:35:57;14.10;;;12.60;;
1054;SDS011;516;51.482;7.120;2022-08-05T04:38:23;18.13;;;15.67;;
1054;SDS011;516;51.482;7.120;2022-08-05T04:40:49;25.03;;;17.33;;
1054;SDS011;516;51.482;7.120;2022-08-05T04:43:15;22.23;;;18.47;;
1054;SDS011;516;51.482;7.120;2022-08-05T04:45:40;28.20;;;19.97;;
1054;SDS011;516;51.482;7.120;2022-08-05T04:48:07;27.93;;;22.37;;
1054;SDS011;516;51.482;7.120;2022-08-05T04:50:44;25.27;;;20.77;;
1054;SDS011;516;51.482;7.120;2022-08-05T04:53:11;27.40;;;22.00;;
1054;SDS011;516;51.482;7.120;2022-08-05T04:55:39;24.53;;;21.77;;
1054;SDS011;516;51.482;7.120;2022-08-05T04:58:05;29.87;;;21.10;;
1054;SDS011;516;51.482;7.120;2022-08-05T05:00:34;34.90;;;22.47;;
1054;SDS011;516;51.482;7.120;2022-08-05T05:03:01;26.70;;;21.57;;
1054;SDS011;516;51.482;7.120;2022-08-05T05:05:28;25.67;;;22.13;;
1054;SDS011;516;51.482;7.120;2022-08-05T05:07:55;30.37;;;22.07;;
1054;SDS011;516;51.482;7.120;2022-08-05T05:10:25;25.60;;;22.00;;
1054;SDS011;516;51.482;7.120;2022-08-05T05:12:51;23.73;;;21.03;;
1054;SDS011;516;51.482;7.120;2022-08-05T05:15:17;25.80;;;21.83;;
1054;SDS011;516;51.482;7.120;2022-08-05T05:17:42;24.27;;;19.70;;
1054;SDS011;516;51.482;7.120;2022-08-05T05:20:09;22.53;;;19.70;;
1054;SDS011;516;51.482;7.120;2022-08-05T05:22:35;28.00;;;21.60;;
1054;SDS011;516;51.482;7.120;2022-08-05T05:25:01;28.80;;;22.20;;
1054;SDS011;516;51.482;7.120;2022-08-05T05:27:28;38.80;;;27.47;;
1054;SDS011;516;51.482;7.120;2022-08-05T05:29:56;33.80;;;28.40;;
1054;SDS011;516;51.482;7.120;2022-08-05T05:32:22;36.07;;;27.50;;
1054;SDS011;516;51.482;7.120;2022-08-05T05:34:47;44.33;;;28.87;;
1054;SDS011;516;51.482;7.120;2022-08-05T05:37:13;36.93;;;29.33;;
1054;SDS011;516;51.482;7.120;2022-08-05T05:39:40;38.53;;;28.77;;
1054;SDS011;516;51.482;7.120;2022-08-05T05:42:05;33.90;;;28.20;;
1054;SDS011;516;51.482;7.120;2022-08-05T05:44:31;34.47;;;27.40;;
1054;SDS011;516;51.482;7.120;2022-08-05T05:46:58;34.60;;;28.30;;
1054;SDS011;516;51.482;7.120;2022-08-05T05:49:24;33.53;;;28.23;;
1054;SDS011;516;51.482;7.120;2022-08-05T05:51:50;33.90;;;27.93;;
1054;SDS011;516;51.482;7.120;2022-08-05T05:54:16;37.30;;;29.03;;
1054;SDS011;516;51.482;7.120;2022-08-05T05:56:42;35.90;;;28.07;;
1054;SDS011;516;51.482;7.120;2022-08-05T05:59:08;37.87;;;28.50;;
1054;SDS011;516;51.482;7.120;2022-08-05T06:01:34;32.17;;;27.20;;
1054;SDS011;516;51.482;7.120;2022-08-05T06:04:02;39.03;;;28.97;;
1054;SDS011;516;51.482;7.120;2022-08-05T06:06:28;33.43;;;27.83;;
1054;SDS011;516;51.482;7.120;2022-08-05T06:08:53;36.10;;;29.53;;
1054;SDS011;516;51.482;7.120;2022-08-05T06:11:19;38.23;;;28.63;;
1054;SDS011;516;51.482;7.120;2022-08-05T06:13:45;35.80;;;28.63;;
1054;SDS011;516;51.482;7.120;2022-08-05T06:16:10;39.73;;;29.93;;
1054;SDS011;516;51.482;7.120;2022-08-05T06:18:36;38.50;;;29.07;;
1054;SDS011;516;51.482;7.120;2022-08-05T06:21:02;34.80;;;30.97;;
1054;SDS011;516;51.482;7.120;2022-08-05T06:23:28;42.10;;;29.70;;
1054;SDS011;516;51.482;7.120;2022-08-05T06:25:54;35.93;;;28.73;;
1054;SDS011;516;51.482;7.120;2022-08-05T06:28:19;36.10;;;28.37;;
1054;SDS011;516;51.482;7.120;2022-08-05T06:30:45;30.07;;;25.00;;
1054;SDS011;516;51.482;7.120;2022-08-05T06:33:11;31.97;;;24.97;;
1054;SDS011;516;51.482;7.120;2022-08-05T06:35:37;26.40;;;22.50;;
1054;SDS011;516;51.482;7.120;2022-08-05T06:38:02;33.87;;;23.30;;
1054;SDS011;516;51.482;7.120;2022-08-05T06:40:28;27.50;;;24.57;;
1054;SDS011;516;51.482;7.120;2022-08-05T06:42:54;24.20;;;21.43;;
1054;SDS011;516;51.482;7.120;2022-08-05T06:45:20;25.57;;;20.70;;
1054;SDS011;516;51.482;7.120;2022-08-05T06:47:46;28.50;;;22.60;;
1054;SDS011;516;51.482;7.120;2022-08-05T06:50:11;25.47;;;22.63;;
1054;SDS011;516;51.482;7.120;2022-08-05T06:52:37;26.03;;;22.77;;
1054;SDS011;516;51.482;7.120;2022-08-05T06:55:03;26.43;;;20.93;;
1054;SDS011;516;51.482;7.120;2022-08-05T06:57:29;27.47;;;19.73;;
1054;SDS011;516;51.482;7.120;2022-08-05T06:59:55;22.90;;;20.50;;
1054;SDS011;516;51.482;7.120;2022-08-05T07:02:20;30.63;;;21.77;;
1054;SDS011;516;51.482;7.120;2022-08-05T07:04:46;22.57;;;20.30;;
1054;SDS011;516;51.482;7.120;2022-08-05T07:07:12;31.83;;;22.20;;
1054;SDS011;516;51.482;7.120;2022-08-05T07:09:37;26.27;;;23.07;;
1054;SDS011;516;51.482;7.120;2022-08-05T07:12:03;26.43;;;23.07;;
1054;SDS011;516;51.482;7.120;2022-08-05T07:14:29;37.47;;;24.70;;
1054;SDS011;516;51.482;7.120;2022-08-05T07:17:13;26.87;;;23.97;;
1054;SDS011;516;51.482;7.120;2022-08-05T07:19:39;29.63;;;23.50;;
1054;SDS011;516;51.482;7.120;2022-08-05T07:22:05;27.67;;;24.43;;
1054;SDS011;516;51.482;7.120;2022-08-05T07:24:31;27.77;;;24.30;;
1054;SDS011;516;51.482;7.120;2022-08-05T07:26:57;24.97;;;22.40;;
1054;SDS011;516;51.482;7.120;2022-08-05T07:29:22;22.20;;;19.90;;
1054;SDS011;516;51.482;7.120;2022-08-05T07:31:48;23.17;;;20.93;;
1054;SDS011;516;51.482;7.120;2022-08-05T07:34:14;21.77;;;19.10;;
1054;SDS011;516;51.482;7.120;2022-08-05T07:36:39;23.93;;;18.47;;
1054;SDS011;516;51.482;7.120;2022-08-05T07:39:06;30.33;;;18.53;;
1054;SDS011;516;51.482;7.120;2022-08-05T07:41:32;18.93;;;15.93;;
1054;SDS011;516;51.482;7.120;2022-08-05T07:43:59;20.63;;;16.37;;
1054;SDS011;516;51.482;7.120;2022-08-05T07:46:26;15.93;;;14.30;;
1054;SDS011;516;51.482;7.120;2022-08-05T07:48:53;19.17;;;14.50;;
1054;SDS011;516;51.482;7.120;2022-08-05T07:51:20;15.03;;;13.53;;
1054;SDS011;516;51.482;7.120;2022-08-05T07:53:45;16.00;;;12.80;;
1054;SDS011;516;51.482;7.120;2022-08-05T07:56:11;15.90;;;14.27;;
1054;SDS011;516;51.482;7.120;2022-08-05T07:58:37;14.57;;;13.03;;
1054;SDS011;516;51.482;7.120;2022-08-05T08:01:02;13.97;;;12.37;;
1054;SDS011;516;51.482;7.120;2022-08-05T08:03:28;16.07;;;14.67;;
1054;SDS011;516;51.482;7.120;2022-08-05T08:05:54;15.43;;;13.83;;
1054;SDS011;516;51.482;7.120;2022-08-05T08:08:20;15.53;;;14.23;;
1054;SDS011;516;51.482;7.120;2022-08-05T08:10:45;15.47;;;13.93;;
1054;SDS011;516;51.482;7.120;2022-08-05T08:13:11;13.80;;;12.40;;
1054;SDS011;516;51.482;7.120;2022-08-05T08:15:37;13.47;;;12.17;;
1054;SDS011;516;51.482;7.120;2022-08-05T08:18:03;13.17;;;11.90;;
1054;SDS011;516;51.482;7.120;2022-08-05T08:20:29;12.10;;;11.00;;
1054;SDS011;516;51.482;7.120;2022-08-05T08:22:55;17.20;;;12.30;;
1054;SDS011;516;51.482;7.120;2022-08-05T08:25:27;12.20;;;11.10;;
1054;SDS011;516;51.482;7.120;2022-08-05T08:27:54;11.67;;;10.57;;
1054;SDS011;516;51.482;7.120;2022-08-05T08:30:20;13.77;;;10.40;;
1054;SDS011;516;51.482;7.120;2022-08-05T08:32:47;14.50;;;10.70;;
1054;SDS011;516;51.482;7.120;2022-08-05T08:35:12;13.80;;;10.20;;
1054;SDS011;516;51.482;7.120;2022-08-05T08:37:38;12.53;;;11.23;;
1054;SDS011;516;51.482;7.120;2022-08-05T08:40:04;11.30;;;9.90;;
1054;SDS011;516;51.482;7.120;2022-08-05T08:42:30;13.60;;;10.23;;
1054;SDS011;516;51.482;7.120;2022-08-05T08:44:57;11.60;;;9.53;;
1054;SDS011;516;51.482;7.120;2022-08-05T08:47:25;10.00;;;9.20;;
1054;SDS011;516;51.482;7.120;2022-08-05T08:49:52;9.17;;;8.27;;
1054;SDS011;516;51.482;7.120;2022-08-05T08:52:22;11.80;;;9.63;;
1054;SDS011;516;51.482;7.120;2022-08-05T08:54:50;10.13;;;9.13;;
1054;SDS011;516;51.482;7.120;2022-08-05T08:57:17;10.77;;;9.70;;
1054;SDS011;516;51.482;7.120;2022-08-05T08:59:43;11.13;;;8.73;;
1054;SDS011;516;51.482;7.120;2022-08-05T09:02:10;11.73;;;9.10;;
1054;SDS011;516;51.482;7.120;2022-08-05T09:04:36;11.63;;;8.63;;
1054;SDS011;516;51.482;7.120;2022-08-05T09:07:05;11.63;;;9.10;;
1054;SDS011;516;51.482;7.120;2022-08-05T09:09:32;10.23;;;8.40;;
1054;SDS011;516;51.482;7.120;2022-08-05T09:11:59;8.80;;;8.00;;
1054;SDS011;516;51.482;7.120;2022-08-05T09:14:26;8.70;;;7.80;;
1054;SDS011;516;51.482;7.120;2022-08-05T09:16:52;7.83;;;7.23;;
1054;SDS011;516;51.482;7.120;2022-08-05T09:19:18;12.53;;;7.30;;
1054;SDS011;516;51.482;7.120;2022-08-05T09:21:44;8.33;;;7.30;;
1054;SDS011;516;51.482;7.120;2022-08-05T09:24:09;8.70;;;7.00;;
1054;SDS011;516;51.482;7.120;2022-08-05T09:26:37;10.97;;;7.47;;
1054;SDS011;516;51.482;7.120;2022-08-05T09:29:06;8.60;;;7.90;;
1054;SDS011;516;51.482;7.120;2022-08-05T09:31:32;8.10;;;7.23;;
1054;SDS011;516;51.482;7.120;2022-08-05T09:33:59;7.43;;;5.90;;
1054;SDS011;516;51.482;7.120;2022-08-05T09:36:48;6.87;;;6.27;;
1054;SDS011;516;51.482;7.120;2022-08-05T09:39:16;9.47;;;6.07;;
1054;SDS011;516;51.482;7.120;2022-08-05T09:41:58;6.60;;;5.40;;
1054;SDS011;516;51.482;7.120;2022-08-05T09:47:17;8.50;;;6.90;;
1054;SDS011;516;51.482;7.120;2022-08-05T09:49:51;6.33;;;5.57;;
1054;SDS011;516;51.482;7.120;2022-08-05T09:52:19;9.30;;;6.90;;
1054;SDS011;516;51.482;7.120;2022-08-05T10:02:37;6.37;;;5.73;;
1054;SDS011;516;51.482;7.120;2022-08-05T10:05:17;9.83;;;5.30;;
1054;SDS011;516;51.482;7.120;2022-08-05T10:07:55;7.07;;;6.37;;
1054;SDS011;516;51.482;7.120;2022-08-05T10:10:26;9.33;;;5.50;;
1054;SDS011;516;51.482;7.120;2022-08-05T10:12:56;7.07;;;5.30;;
1054;SDS011;516;51.482;7.120;2022-08-05T10:20:44;5.67;;;5.20;;
1054;SDS011;516;51.482;7.120;2022-08-05T10:23:17;4.90;;;4.40;;
1054;SDS011;516;51.482;7.120;2022-08-05T10:25:44;5.13;;;4.73;;
1054;SDS011;516;51.482;7.120;2022-08-05T10:28:10;5.00;;;4.60;;
1054;SDS011;516;51.482;7.120;2022-08-05T10:30:36;5.33;;;4.83;;
1054;SDS011;516;51.482;7.120;2022-08-05T10:33:03;5.23;;;4.83;;
1054;SDS011;516;51.482;7.120;2022-08-05T10:35:32;6.33;;;5.73;;
1054;SDS011;516;51.482;7.120;2022-08-05T10:37:59;7.43;;;6.27;;
1054;SDS011;516;51.482;7.120;2022-08-05T10:43:03;9.50;;;6.53;;
1054;SDS011;516;51.482;7.120;2022-08-05T10:45:36;7.80;;;6.03;;
1054;SDS011;516;51.482;7.120;2022-08-05T10:51:09;7.63;;;5.90;;
1054;SDS011;516;51.482;7.120;2022-08-05T10:53:37;5.63;;;5.10;;
1054;SDS011;516;51.482;7.120;2022-08-05T10:58:35;7.57;;;6.87;;
1054;SDS011;516;51.482;7.120;2022-08-05T11:01:12;7.37;;;6.67;;
1054;SDS011;516;51.482;7.120;2022-08-05T11:09:35;5.00;;;4.70;;
1054;SDS011;516;51.482;7.120;2022-08-05T11:12:03;7.60;;;5.37;;
1054;SDS011;516;51.482;7.120;2022-08-05T11:14:30;5.83;;;5.43;;
1054;SDS011;516;51.482;7.120;2022-08-05T11:19:49;6.30;;;5.80;;
1054;SDS011;516;51.482;7.120;2022-08-05T11:33:27;5.77;;;5.37;;
1054;SDS011;516;51.482;7.120;2022-08-05T11:46:28;6.40;;;6.00;;
1054;SDS011;516;51.482;7.120;2022-08-05T11:48:54;6.60;;;6.10;;
1054;SDS011;516;51.482;7.120;2022-08-05T11:51:21;6.43;;;5.83;;
1054;SDS011;516;51.482;7.120;2022-08-05T11:53:47;7.53;;;6.87;;
1054;SDS011;516;51.482;7.120;2022-08-05T11:56:13;7.20;;;6.60;;
1054;SDS011;516;51.482;7.120;2022-08-05T11:58:40;6.83;;;6.23;;
1054;SDS011;516;51.482;7.120;2022-08-05T12:01:09;7.83;;;7.33;;
1054;SDS011;516;51.482;7.120;2022-08-05T12:03:49;7.07;;;6.57;;
1054;SDS011;516;51.482;7.120;2022-08-05T12:06:18;8.30;;;7.73;;
1054;SDS011;516;51.482;7.120;2022-08-05T12:11:16;7.07;;;6.57;;
1054;SDS011;516;51.482;7.120;2022-08-05T12:16:24;8.40;;;7.80;;
1054;SDS011;516;51.482;7.120;2022-08-05T12:18:51;8.47;;;7.97;;
1054;SDS011;516;51.482;7.120;2022-08-05T12:21:28;11.57;;;10.17;;
1054;SDS011;516;51.482;7.120;2022-08-05T12:29:23;9.43;;;8.87;;
1054;SDS011;516;51.482;7.120;2022-08-05T12:31:51;8.50;;;8.00;;
1054;SDS011;516;51.482;7.120;2022-08-05T12:34:17;10.67;;;9.77;;
1054;SDS011;516;51.482;7.120;2022-08-05T12:36:45;9.10;;;8.50;;
1054;SDS011;516;51.482;7.120;2022-08-05T12:39:12;8.43;;;7.93;;
1054;SDS011;516;51.482;7.120;2022-08-05T12:41:38;8.40;;;7.80;;
1054;SDS011;516;51.482;7.120;2022-08-05T12:44:06;8.67;;;8.10;;
1054;SDS011;516;51.482;7.120;2022-08-05T12:46:34;10.20;;;9.10;;
1054;SDS011;516;51.482;7.120;2022-08-05T12:49:05;8.33;;;7.63;;
1054;SDS011;516;51.482;7.120;2022-08-05T12:51:42;8.13;;;7.53;;
1054;SDS011;516;51.482;7.120;2022-08-05T12:54:08;8.87;;;8.43;;
1054;SDS011;516;51.482;7.120;2022-08-05T12:56:34;10.23;;;9.23;;
1054;SDS011;516;51.482;7.120;2022-08-05T13:01:42;9.50;;;8.90;;
1054;SDS011;516;51.482;7.120;2022-08-05T13:04:10;10.60;;;9.70;;
1054;SDS011;516;51.482;7.120;2022-08-05T13:06:36;9.07;;;8.57;;
1054;SDS011;516;51.482;7.120;2022-08-05T13:09:07;9.37;;;8.70;;
1054;SDS011;516;51.482;7.120;2022-08-05T13:11:36;9.47;;;8.67;;
1054;SDS011;516;51.482;7.120;2022-08-05T13:14:24;7.50;;;7.07;;
1054;SDS011;516;51.482;7.120;2022-08-05T13:19:19;8.43;;;7.83;;
1054;SDS011;516;51.482;7.120;2022-08-05T13:21:46;9.80;;;8.60;;
1054;SDS011;516;51.482;7.120;2022-08-05T13:24:12;8.27;;;7.57;;
1054;SDS011;516;51.482;7.120;2022-08-05T13:26:38;8.30;;;7.63;;
1054;SDS011;516;51.482;7.120;2022-08-05T13:29:04;7.10;;;6.80;;
1054;SDS011;516;51.482;7.120;2022-08-05T13:31:30;7.93;;;7.47;;
1054;SDS011;516;51.482;7.120;2022-08-05T13:33:55;8.93;;;8.23;;
1054;SDS011;516;51.482;7.120;2022-08-05T13:36:21;8.87;;;8.27;;
1054;SDS011;516;51.482;7.120;2022-08-05T13:38:47;8.43;;;7.80;;
1054;SDS011;516;51.482;7.120;2022-08-05T13:41:12;7.60;;;7.20;;
1054;SDS011;516;51.482;7.120;2022-08-05T13:43:39;9.60;;;8.80;;
1054;SDS011;516;51.482;7.120;2022-08-05T13:46:05;8.90;;;8.20;;
1054;SDS011;516;51.482;7.120;2022-08-05T13:48:32;8.13;;;7.60;;
1054;SDS011;516;51.482;7.120;2022-08-05T13:51:06;8.33;;;7.93;;
1054;SDS011;516;51.482;7.120;2022-08-05T13:53:32;9.33;;;8.53;;
1054;SDS011;516;51.482;7.120;2022-08-05T13:55:59;9.23;;;8.83;;
1054;SDS011;516;51.482;7.120;2022-08-05T13:58:25;9.30;;;8.27;;
1054;SDS011;516;51.482;7.120;2022-08-05T14:00:51;8.97;;;8.37;;
1054;SDS011;516;51.482;7.120;2022-08-05T14:03:17;8.80;;;7.80;;
1054;SDS011;516;51.482;7.120;2022-08-05T14:05:43;7.17;;;6.60;;
1054;SDS011;516;51.482;7.120;2022-08-05T14:08:08;7.13;;;6.73;;
1054;SDS011;516;51.482;7.120;2022-08-05T14:10:34;7.80;;;7.10;;
1054;SDS011;516;51.482;7.120;2022-08-05T14:13:00;7.40;;;7.00;;
1054;SDS011;516;51.482;7.120;2022-08-05T14:15:27;7.40;;;6.90;;
1054;SDS011;516;51.482;7.120;2022-08-05T14:17:52;6.67;;;6.20;;
1054;SDS011;516;51.482;7.120;2022-08-05T14:20:18;7.00;;;6.60;;
1054;SDS011;516;51.482;7.120;2022-08-05T14:22:44;7.17;;;6.53;;
1054;SDS011;516;51.482;7.120;2022-08-05T14:25:10;7.10;;;6.57;;
1054;SDS011;516;51.482;7.120;2022-08-05T14:27:35;6.60;;;6.30;;
1054;SDS011;516;51.482;7.120;2022-08-05T14:30:02;7.10;;;6.60;;
1054;SDS011;516;51.482;7.120;2022-08-05T14:32:28;6.50;;;6.20;;
1054;SDS011;516;51.482;7.120;2022-08-05T14:34:55;6.37;;;6.00;;
1054;SDS011;516;51.482;7.120;2022-08-05T14:37:21;5.90;;;5.60;;
1054;SDS011;516;51.482;7.120;2022-08-05T14:39:46;6.57;;;6.23;;
1054;SDS011;516;51.482;7.120;2022-08-05T14:42:12;6.67;;;6.03;;
1054;SDS011;516;51.482;7.120;2022-08-05T14:44:38;6.40;;;6.00;;
1054;SDS011;516;51.482;7.120;2022-08-05T14:47:03;6.43;;;6.13;;
1054;SDS011;516;51.482;7.120;2022-08-05T14:49:29;5.93;;;5.47;;
1054;SDS011;516;51.482;7.120;2022-08-05T14:51:55;6.10;;;5.77;;
1054;SDS011;516;51.482;7.120;2022-08-05T14:54:20;5.77;;;5.43;;
1054;SDS011;516;51.482;7.120;2022-08-05T14:56:46;6.60;;;6.10;;
1054;SDS011;516;51.482;7.120;2022-08-05T14:59:13;6.50;;;6.17;;
1054;SDS011;516;51.482;7.120;2022-08-05T15:01:39;12.73;;;7.07;;
1054;SDS011;516;51.482;7.120;2022-08-05T15:04:05;7.03;;;6.40;;
1054;SDS011;516;51.482;7.120;2022-08-05T15:06:34;6.83;;;6.30;;
1054;SDS011;516;51.482;7.120;2022-08-05T15:09:00;6.63;;;6.30;;
1054;SDS011;516;51.482;7.120;2022-08-05T15:11:26;6.83;;;6.37;;
1054;SDS011;516;51.482;7.120;2022-08-05T15:13:52;7.10;;;6.40;;
1054;SDS011;516;51.482;7.120;2022-08-05T15:16:17;5.93;;;5.70;;
1054;SDS011;516;51.482;7.120;2022-08-05T15:18:43;7.10;;;6.60;;
1054;SDS011;516;51.482;7.120;2022-08-05T15:21:08;6.27;;;5.90;;
1054;SDS011;516;51.482;7.120;2022-08-05T15:23:34;6.83;;;6.40;;
1054;SDS011;516;51.482;7.120;2022-08-05T15:26:00;6.23;;;5.93;;
1054;SDS011;516;51.482;7.120;2022-08-05T15:28:25;8.03;;;7.60;;
1054;SDS011;516;51.482;7.120;2022-08-05T15:30:51;7.53;;;6.80;;
1054;SDS011;516;51.482;7.120;2022-08-05T15:33:16;7.30;;;6.67;;
1054;SDS011;516;51.482;7.120;2022-08-05T15:35:42;6.30;;;6.00;;
1054;SDS011;516;51.482;7.120;2022-08-05T15:38:08;7.93;;;6.13;;
1054;SDS011;516;51.482;7.120;2022-08-05T15:40:34;7.03;;;6.50;;
1054;SDS011;516;51.482;7.120;2022-08-05T15:42:59;5.60;;;5.30;;
1054;SDS011;516;51.482;7.120;2022-08-05T15:45:25;6.37;;;5.87;;
1054;SDS011;516;51.482;7.120;2022-08-05T15:47:52;6.37;;;6.13;;
1054;SDS011;516;51.482;7.120;2022-08-05T15:50:18;7.40;;;6.57;;
1054;SDS011;516;51.482;7.120;2022-08-05T15:52:44;6.50;;;6.20;;
1054;SDS011;516;51.482;7.120;2022-08-05T15:55:10;7.40;;;7.10;;
1054;SDS011;516;51.482;7.120;2022-08-05T15:57:38;7.43;;;6.90;;
1054;SDS011;516;51.482;7.120;2022-08-05T16:00:05;6.73;;;6.43;;
1054;SDS011;516;51.482;7.120;2022-08-05T16:02:32;7.20;;;6.80;;
1054;SDS011;516;51.482;7.120;2022-08-05T16:04:58;6.40;;;6.07;;
1054;SDS011;516;51.482;7.120;2022-08-05T16:07:23;6.13;;;5.83;;
1054;SDS011;516;51.482;7.120;2022-08-05T16:09:50;6.47;;;6.07;;
1054;SDS011;516;51.482;7.120;2022-08-05T16:12:16;6.67;;;6.37;;
1054;SDS011;516;51.482;7.120;2022-08-05T16:14:42;7.57;;;6.90;;
1054;SDS011;516;51.482;7.120;2022-08-05T16:17:09;6.63;;;6.30;;
1054;SDS011;516;51.482;7.120;2022-08-05T16:19:36;6.43;;;6.00;;
1054;SDS011;516;51.482;7.120;2022-08-05T16:22:02;6.87;;;6.40;;
1054;SDS011;516;51.482;7.120;2022-08-05T16:24:28;6.50;;;6.20;;
1054;SDS011;516;51.482;7.120;2022-08-05T16:26:57;6.20;;;6.00;;
1054;SDS011;516;51.482;7.120;2022-08-05T16:29:24;6.50;;;6.10;;
1054;SDS011;516;51.482;7.120;2022-08-05T16:31:51;14.93;;;8.77;;
1054;SDS011;516;51.482;7.120;2022-08-05T16:34:18;46.53;;;42.63;;
1054;SDS011;516;51.482;7.120;2022-08-05T16:36:45;17.53;;;16.00;;
1054;SDS011;516;51.482;7.120;2022-08-05T16:39:10;13.10;;;12.30;;